createdAt,value
2017-06-22T00:01:11.641Z,97.10
2017-06-22T00:03:39.085Z,97.00
2017-06-22T00:06:06.559Z,96.80
2017-06-22T00:08:34.011Z,97.00
2017-06-22T00:11:01.446Z,97.20
2017-06-22T00:13:28.947Z,97.40
2017-06-22T00:15:56.468Z,97.40
2017-06-22T00:18:23.930Z,97.50
2017-06-22T00:20:51.374Z,97.70
2017-06-22T00:23:18.862Z,97.80
2017-06-22T00:25:46.406Z,97.90
2017-06-22T00:28:13.872Z,97.90
2017-06-22T00:30:41.314Z,97.90
2017-06-22T00:33:08.747Z,97.90
2017-06-22T00:35:36.174Z,97.90
2017-06-22T00:38:03.636Z,98.00
2017-06-22T00:40:31.870Z,98.00
2017-06-22T00:42:59.379Z,98.00
2017-06-22T00:45:26.906Z,98.00
2017-06-22T00:47:55.103Z,98.10
2017-06-22T00:50:22.534Z,98.00
2017-06-22T00:52:50.774Z,98.00
2017-06-22T00:55:18.222Z,98.00
2017-06-22T00:57:45.658Z,97.90
2017-06-22T01:00:13.099Z,97.70
2017-06-22T01:02:40.532Z,97.60
2017-06-22T01:05:08.753Z,97.60
2017-06-22T01:07:36.190Z,97.50
2017-06-22T01:10:03.619Z,97.50
2017-06-22T01:12:31.890Z,97.90
2017-06-22T01:14:59.346Z,97.50
2017-06-22T01:17:26.866Z,97.50
2017-06-22T01:19:54.836Z,97.20
2017-06-22T01:22:22.271Z,97.20
2017-06-22T01:24:49.751Z,97.20
2017-06-22T01:27:17.207Z,97.10
2017-06-22T01:29:44.676Z,96.90
2017-06-22T01:32:12.244Z,97.10
2017-06-22T01:34:39.678Z,97.30
2017-06-22T01:37:07.147Z,97.10
2017-06-22T01:39:34.610Z,97.20
2017-06-22T01:42:02.050Z,97.10
2017-06-22T01:44:29.507Z,97.00
2017-06-22T01:46:56.936Z,97.00
2017-06-22T01:49:24.382Z,96.70
2017-06-22T01:51:51.817Z,96.60
2017-06-22T01:54:20.027Z,96.70
2017-06-22T01:56:47.462Z,96.70
2017-06-22T01:59:14.900Z,96.80
2017-06-22T02:01:43.094Z,96.90
2017-06-22T02:04:10.535Z,96.90
2017-06-22T02:06:38.100Z,96.90
2017-06-22T02:09:05.533Z,97.10
2017-06-22T02:11:33.759Z,97.20
2017-06-22T02:14:01.211Z,97.20
2017-06-22T02:16:28.662Z,97.20
2017-06-22T02:18:56.121Z,97.30
2017-06-22T02:21:23.590Z,97.40
2017-06-22T02:24:00.076Z,97.40
2017-06-22T02:26:27.545Z,97.30
2017-06-22T02:28:55.073Z,97.40
2017-06-22T02:31:22.547Z,97.60
2017-06-22T02:33:49.990Z,97.30
2017-06-22T02:36:17.446Z,97.40
2017-06-22T02:38:44.884Z,97.50
2017-06-22T02:41:12.373Z,97.40
2017-06-22T02:43:39.803Z,97.30
2017-06-22T02:46:07.271Z,97.20
2017-06-22T02:48:34.836Z,97.20
2017-06-22T02:51:02.270Z,97.30
2017-06-22T02:53:29.746Z,97.20
2017-06-22T02:55:57.265Z,97.50
2017-06-22T02:58:24.724Z,97.50
2017-06-22T03:00:53.321Z,97.50
2017-06-22T03:03:20.798Z,97.50
2017-06-22T03:05:48.283Z,97.50
2017-06-22T03:08:15.703Z,97.50
2017-06-22T03:10:43.162Z,97.30
2017-06-22T03:13:10.651Z,97.20
2017-06-22T03:15:38.533Z,97.10
2017-06-22T03:18:05.954Z,97.10
2017-06-22T03:20:33.395Z,97.20
2017-06-22T03:23:01.688Z,97.00
2017-06-22T03:25:29.219Z,96.90
2017-06-22T03:27:56.774Z,96.80
2017-06-22T03:30:24.268Z,96.70
2017-06-22T03:32:51.706Z,96.50
2017-06-22T03:35:19.263Z,96.40
2017-06-22T03:37:46.718Z,96.00
2017-06-22T03:40:14.181Z,96.00
2017-06-22T03:42:41.627Z,95.90
2017-06-22T03:45:09.092Z,95.80
2017-06-22T03:47:36.534Z,95.90
2017-06-22T03:50:03.974Z,95.90
2017-06-22T03:52:31.454Z,96.00
2017-06-22T03:54:58.903Z,95.90
2017-06-22T03:57:26.369Z,95.80
2017-06-22T03:59:53.861Z,95.80
2017-06-22T04:02:21.379Z,95.90
2017-06-22T04:04:48.917Z,95.50
2017-06-22T04:07:16.387Z,95.40
2017-06-22T04:09:43.859Z,95.30
2017-06-22T04:12:11.316Z,95.20
2017-06-22T04:14:38.751Z,95.10
2017-06-22T04:17:06.225Z,95.00
2017-06-22T04:19:33.672Z,95.00
2017-06-22T04:22:01.131Z,94.90
2017-06-22T04:24:28.618Z,94.80
2017-06-22T04:26:56.166Z,94.70
2017-06-22T04:29:23.626Z,94.70
2017-06-22T04:31:51.063Z,94.80
2017-06-22T04:34:18.538Z,94.60
2017-06-22T04:36:45.996Z,94.50
2017-06-22T04:39:13.526Z,94.40
2017-06-22T04:41:40.959Z,94.30
2017-06-22T04:44:08.446Z,94.10
2017-06-22T04:46:35.874Z,93.90
2017-06-22T04:49:03.320Z,93.80
2017-06-22T04:51:30.779Z,93.90
2017-06-22T04:53:58.295Z,94.00
2017-06-22T04:56:25.847Z,93.70
2017-06-22T04:58:53.312Z,93.50
2017-06-22T05:01:20.874Z,93.70
2017-06-22T05:03:48.304Z,93.60
2017-06-22T05:06:15.758Z,93.40
2017-06-22T05:08:43.213Z,93.40
2017-06-22T05:11:10.678Z,93.20
2017-06-22T05:13:38.107Z,93.60
2017-06-22T05:16:05.542Z,92.80
2017-06-22T05:18:33.165Z,92.60
2017-06-22T05:21:00.699Z,92.60
2017-06-22T05:23:28.130Z,92.80
2017-06-22T05:25:55.642Z,92.70
2017-06-22T05:28:23.067Z,92.70
2017-06-22T05:30:50.523Z,93.00
2017-06-22T05:33:18.056Z,92.90
2017-06-22T05:35:45.555Z,93.00
2017-06-22T05:38:13.104Z,92.60
2017-06-22T05:40:40.559Z,92.40
2017-06-22T05:43:08.114Z,92.10
2017-06-22T05:45:35.538Z,92.10
2017-06-22T05:48:03.018Z,92.20
2017-06-22T05:50:30.509Z,92.20
2017-06-22T05:52:57.934Z,92.00
2017-06-22T05:55:25.394Z,92.20
2017-06-22T05:57:52.858Z,92.20
2017-06-22T06:00:20.303Z,92.10
2017-06-22T06:02:47.760Z,91.80
2017-06-22T06:05:15.322Z,91.80
2017-06-22T06:07:42.757Z,91.30
2017-06-22T06:10:10.470Z,90.70
2017-06-22T06:12:37.882Z,90.40
2017-06-22T06:15:06.298Z,90.40
2017-06-22T06:17:33.721Z,90.30
2017-06-22T06:20:01.970Z,90.60
2017-06-22T06:22:29.402Z,90.50
2017-06-22T06:24:56.941Z,90.00
2017-06-22T06:27:24.434Z,90.00
2017-06-22T06:29:51.895Z,89.40
2017-06-22T06:32:19.340Z,89.20
2017-06-22T06:34:46.823Z,88.00
2017-06-22T06:37:15.041Z,88.50
2017-06-22T06:39:42.526Z,87.90
2017-06-22T06:42:10.466Z,87.50
2017-06-22T06:44:37.905Z,88.20
2017-06-22T06:47:05.406Z,89.00
2017-06-22T06:49:32.940Z,89.00
2017-06-22T06:52:00.598Z,88.40
2017-06-22T06:54:28.075Z,88.70
2017-06-22T06:56:55.519Z,88.90
2017-06-22T06:59:22.986Z,88.70
2017-06-22T07:01:50.526Z,89.30
2017-06-22T07:04:18.001Z,89.20
2017-06-22T07:06:45.544Z,89.10
2017-06-22T07:09:13.099Z,89.90
2017-06-22T07:11:40.567Z,90.60
2017-06-22T07:14:08.018Z,90.30
2017-06-22T07:16:35.494Z,90.70
2017-06-22T07:19:02.949Z,90.80
2017-06-22T07:21:30.500Z,90.50
2017-06-22T07:23:57.978Z,90.50
2017-06-22T07:26:25.410Z,90.70
2017-06-22T07:28:52.883Z,90.40
2017-06-22T07:31:20.450Z,90.00
2017-06-22T07:33:47.995Z,89.20
2017-06-22T07:36:15.448Z,89.00
2017-06-22T07:38:42.912Z,88.60
2017-06-22T07:41:10.355Z,88.00
2017-06-22T07:43:37.823Z,87.80
2017-06-22T07:46:05.287Z,87.40
2017-06-22T07:48:32.730Z,86.90
2017-06-22T07:51:00.361Z,87.40
2017-06-22T07:53:27.907Z,86.40
2017-06-22T07:55:55.356Z,86.40
2017-06-22T07:58:22.869Z,85.90
2017-06-22T08:00:50.415Z,86.00
2017-06-22T08:03:17.911Z,85.30
2017-06-22T08:05:46.103Z,85.30
2017-06-22T08:08:13.648Z,85.30
2017-06-22T08:10:41.961Z,84.70
2017-06-22T08:13:09.519Z,84.60
2017-06-22T08:15:37.003Z,84.20
2017-06-22T08:18:04.554Z,84.20
2017-06-22T08:20:31.986Z,84.80
2017-06-22T08:22:59.734Z,83.90
2017-06-22T08:25:27.944Z,84.10
2017-06-22T08:27:55.485Z,83.80
2017-06-22T08:30:22.902Z,84.50
2017-06-22T08:32:51.112Z,86.00
2017-06-22T08:35:18.559Z,85.80
2017-06-22T08:37:45.990Z,86.50
2017-06-22T08:40:14.231Z,88.70
2017-06-22T08:42:41.694Z,88.60
2017-06-22T08:45:09.141Z,89.50
2017-06-22T08:47:36.567Z,90.00
2017-06-22T08:50:04.043Z,90.10
2017-06-22T08:52:31.503Z,90.20
2017-06-22T08:54:58.954Z,90.40
2017-06-22T08:57:26.507Z,90.80
2017-06-22T08:59:53.943Z,91.20
2017-06-22T09:02:21.426Z,91.30
2017-06-22T09:04:48.865Z,91.70
2017-06-22T09:07:16.331Z,91.80
2017-06-22T09:09:43.847Z,92.30
2017-06-22T09:12:12.302Z,93.10
2017-06-22T09:14:39.887Z,93.00
2017-06-22T09:17:07.391Z,93.30
2017-06-22T09:19:34.933Z,93.40
2017-06-22T09:22:02.495Z,93.70
2017-06-22T09:24:29.918Z,93.80
2017-06-22T09:26:57.350Z,93.90
2017-06-22T09:29:24.912Z,94.00
2017-06-22T09:31:52.420Z,94.30
2017-06-22T09:34:19.901Z,94.40
2017-06-22T09:36:47.355Z,94.90
2017-06-22T09:39:14.938Z,95.20
2017-06-22T09:41:42.374Z,96.60
2017-06-22T09:44:09.862Z,99.90
2017-06-22T09:46:37.301Z,99.90
2017-06-22T09:49:04.846Z,99.90
2017-06-22T09:51:32.398Z,99.90
2017-06-22T09:53:59.909Z,99.90
2017-06-22T09:56:28.126Z,99.90
2017-06-22T09:58:55.583Z,99.90
2017-06-22T10:01:23.080Z,99.90
2017-06-22T10:03:51.319Z,99.90
2017-06-22T10:06:18.778Z,99.90
2017-06-22T10:08:46.244Z,99.90
2017-06-22T10:11:13.803Z,99.90
2017-06-22T10:13:41.355Z,99.90
2017-06-22T10:16:08.814Z,99.90
2017-06-22T10:18:36.358Z,99.90
2017-06-22T10:21:03.831Z,99.90
2017-06-22T10:23:31.399Z,99.90
2017-06-22T10:25:58.847Z,99.90
2017-06-22T10:28:26.375Z,99.90
2017-06-22T10:30:53.851Z,99.90
2017-06-22T10:33:21.486Z,99.90
2017-06-22T10:35:49.045Z,99.90
2017-06-22T10:38:16.539Z,99.90
2017-06-22T10:40:44.024Z,99.90
2017-06-22T10:43:12.226Z,99.90
2017-06-22T10:45:39.978Z,99.90
2017-06-22T10:48:07.502Z,99.90
2017-06-22T10:50:34.947Z,99.90
2017-06-22T10:53:02.480Z,99.90
2017-06-22T10:55:30.011Z,99.90
2017-06-22T10:57:57.508Z,99.90
2017-06-22T11:00:24.948Z,99.90
2017-06-22T11:02:52.497Z,99.90
2017-06-22T11:05:19.974Z,99.90
2017-06-22T11:07:47.459Z,99.90
2017-06-22T11:10:15.173Z,99.90
2017-06-22T11:12:42.628Z,99.90
2017-06-22T11:15:10.138Z,99.90
2017-06-22T11:17:38.409Z,99.90
2017-06-22T11:20:05.843Z,99.90
2017-06-22T11:22:33.292Z,99.90
2017-06-22T11:25:00.753Z,99.90
2017-06-22T11:27:28.182Z,99.90
2017-06-22T11:29:55.627Z,99.90
2017-06-22T11:32:23.195Z,99.90
2017-06-22T11:34:50.644Z,99.90
2017-06-22T11:37:18.155Z,99.90
2017-06-22T11:39:45.599Z,99.90
2017-06-22T11:42:13.231Z,99.90
2017-06-22T11:44:40.731Z,99.90
2017-06-22T11:47:08.287Z,99.90
2017-06-22T11:49:35.751Z,99.90
2017-06-22T11:52:03.321Z,99.90
2017-06-22T11:54:30.746Z,99.90
2017-06-22T11:56:58.190Z,99.90
2017-06-22T11:59:25.631Z,99.90
2017-06-22T12:01:53.084Z,99.90
2017-06-22T12:04:20.591Z,99.90
2017-06-22T12:06:48.201Z,99.90
2017-06-22T12:09:15.634Z,99.90
2017-06-22T12:11:43.082Z,99.90
2017-06-22T12:14:10.602Z,99.90
2017-06-22T12:16:38.128Z,99.90
2017-06-22T12:19:05.614Z,99.90
2017-06-22T12:21:33.349Z,99.90
2017-06-22T12:24:00.776Z,99.90
2017-06-22T12:26:28.363Z,99.90
2017-06-22T12:28:55.839Z,99.90
2017-06-22T12:31:23.303Z,99.90
2017-06-22T12:33:50.723Z,99.90
2017-06-22T12:36:18.289Z,99.90
2017-06-22T12:38:45.718Z,99.90
2017-06-22T12:41:13.962Z,99.90
2017-06-22T12:43:41.505Z,99.90
2017-06-22T12:46:08.957Z,99.90
2017-06-22T12:48:36.452Z,99.90
2017-06-22T12:51:03.986Z,99.90
2017-06-22T12:53:31.527Z,99.90
2017-06-22T12:55:58.981Z,99.90
2017-06-22T12:58:26.440Z,99.90
2017-06-22T13:00:53.886Z,99.90
2017-06-22T13:03:21.362Z,99.90
2017-06-22T13:05:48.819Z,99.90
2017-06-22T13:08:16.402Z,99.90
2017-06-22T13:10:44.696Z,99.90
2017-06-22T13:13:13.102Z,99.90
2017-06-22T13:15:40.604Z,99.90
2017-06-22T13:18:08.080Z,99.90
2017-06-22T13:20:36.310Z,99.90
2017-06-22T13:23:04.062Z,99.90
2017-06-22T13:25:31.715Z,99.90
2017-06-22T13:27:59.286Z,99.90
2017-06-22T13:30:26.704Z,99.90
2017-06-22T13:32:54.197Z,99.90
2017-06-22T13:35:21.714Z,99.90
2017-06-22T13:37:49.301Z,99.90
2017-06-22T13:40:16.860Z,99.90
2017-06-22T13:42:44.304Z,99.90
2017-06-22T13:45:11.791Z,99.90
2017-06-22T13:47:39.332Z,99.90
2017-06-22T13:50:06.783Z,99.90
2017-06-22T13:52:34.232Z,99.70
2017-06-22T13:55:01.691Z,99.60
2017-06-22T13:57:29.203Z,99.90
2017-06-22T13:59:56.639Z,99.90
2017-06-22T14:02:24.080Z,99.90
2017-06-22T14:04:51.558Z,99.70
2017-06-22T14:07:19.089Z,99.10
2017-06-22T14:09:46.522Z,99.30
2017-06-22T14:12:13.954Z,99.40
2017-06-22T14:14:42.210Z,98.80
2017-06-22T14:17:09.771Z,98.70
2017-06-22T14:19:37.286Z,99.00
2017-06-22T14:22:04.775Z,98.20
2017-06-22T14:24:32.218Z,97.60
2017-06-22T14:26:59.758Z,97.40
2017-06-22T14:29:27.246Z,97.40
2017-06-22T14:31:54.830Z,97.20
2017-06-22T14:34:23.090Z,96.50
2017-06-22T14:36:50.542Z,96.40
2017-06-22T14:39:18.015Z,97.10
2017-06-22T14:41:45.591Z,95.70
2017-06-22T14:44:13.899Z,94.60
2017-06-22T14:46:41.388Z,94.60
2017-06-22T14:49:08.912Z,94.80
2017-06-22T14:51:36.469Z,94.70
2017-06-22T14:54:03.926Z,95.10
2017-06-22T14:56:31.346Z,95.20
2017-06-22T14:58:59.605Z,95.50
2017-06-22T15:01:27.031Z,95.40
2017-06-22T15:03:54.519Z,95.20
2017-06-22T15:06:22.043Z,94.70
2017-06-22T15:08:49.479Z,94.30
2017-06-22T15:11:16.919Z,94.00
2017-06-22T15:13:44.451Z,93.40
2017-06-22T15:16:12.672Z,93.30
2017-06-22T15:18:40.159Z,93.40
2017-06-22T15:21:07.635Z,93.30
2017-06-22T15:23:35.083Z,92.60
2017-06-22T15:26:02.553Z,91.60
2017-06-22T15:28:30.259Z,90.70
2017-06-22T15:30:57.698Z,90.40
2017-06-22T15:33:25.158Z,90.10
2017-06-22T15:35:52.627Z,89.50
2017-06-22T15:38:20.052Z,87.40
2017-06-22T15:40:48.246Z,86.30
2017-06-22T15:43:15.819Z,86.20
2017-06-22T15:45:43.263Z,85.60
2017-06-22T15:48:10.715Z,86.10
2017-06-22T15:50:38.310Z,87.50
2017-06-22T15:53:05.766Z,88.70
2017-06-22T15:55:33.199Z,89.10
2017-06-22T15:58:00.703Z,90.70
2017-06-22T16:00:28.147Z,91.70
2017-06-22T16:02:55.580Z,92.40
2017-06-22T16:05:23.243Z,93.20
2017-06-22T16:07:50.686Z,94.00
2017-06-22T16:10:18.166Z,94.70
2017-06-22T16:12:45.598Z,95.00
2017-06-22T16:15:13.080Z,95.00
2017-06-22T16:17:40.611Z,95.30
2017-06-22T16:20:08.131Z,95.60
2017-06-22T16:22:36.362Z,95.60
2017-06-22T16:25:03.798Z,95.50
2017-06-22T16:27:31.260Z,95.00
2017-06-22T16:29:58.766Z,94.80
2017-06-22T16:32:26.235Z,93.20
2017-06-22T16:34:53.662Z,92.00
2017-06-22T16:37:21.184Z,91.20
2017-06-22T16:39:48.741Z,91.50
2017-06-22T16:42:16.227Z,92.00
2017-06-22T16:44:43.667Z,92.80
2017-06-22T16:47:11.108Z,93.70
2017-06-22T16:49:38.589Z,94.90
2017-06-22T16:52:06.071Z,95.70
2017-06-22T16:54:33.502Z,96.10
2017-06-22T16:57:01.083Z,96.90
2017-06-22T16:59:28.553Z,98.10
2017-06-22T17:01:55.995Z,98.70
2017-06-22T17:04:23.476Z,99.40
2017-06-22T17:06:51.672Z,99.90
2017-06-22T17:09:19.114Z,99.90
2017-06-22T17:11:46.648Z,99.90
2017-06-22T17:14:14.895Z,99.90
2017-06-22T17:16:42.530Z,99.90
2017-06-22T17:19:10.016Z,99.90
2017-06-22T17:21:37.463Z,99.90
2017-06-22T17:24:04.946Z,99.90
2017-06-22T17:26:32.462Z,99.90
2017-06-22T17:29:00.024Z,99.90
2017-06-22T17:31:27.462Z,99.90
2017-06-22T17:33:54.950Z,99.90
2017-06-22T17:36:22.418Z,99.90
2017-06-22T17:38:49.948Z,99.90
2017-06-22T17:41:17.426Z,99.90
2017-06-22T17:43:45.168Z,99.90
2017-06-22T17:46:12.657Z,99.90
2017-06-22T17:48:40.184Z,99.90
2017-06-22T17:51:07.668Z,99.90
2017-06-22T17:53:35.128Z,99.90
2017-06-22T17:56:02.653Z,99.90
2017-06-22T17:58:30.143Z,99.90
2017-06-22T18:00:57.775Z,99.90
2017-06-22T18:03:25.250Z,99.90
2017-06-22T18:05:52.739Z,99.90
2017-06-22T18:08:20.313Z,99.90
2017-06-22T18:10:47.761Z,99.90
2017-06-22T18:13:15.242Z,99.90
2017-06-22T18:15:42.699Z,99.90
2017-06-22T18:18:10.235Z,99.90
2017-06-22T18:20:37.692Z,99.90
2017-06-22T18:23:05.147Z,99.90
2017-06-22T18:25:32.709Z,99.90
2017-06-22T18:28:00.125Z,99.90
2017-06-22T18:30:28.438Z,99.90
2017-06-22T18:32:55.858Z,99.90
2017-06-22T18:35:24.122Z,99.90
2017-06-22T18:37:52.370Z,99.90
2017-06-22T18:40:19.823Z,99.90
2017-06-22T18:42:47.284Z,99.90
2017-06-22T18:45:14.739Z,99.90
2017-06-22T18:47:42.202Z,99.90
2017-06-22T18:50:09.770Z,99.90
2017-06-22T18:52:37.339Z,99.90
2017-06-22T18:55:04.775Z,99.90
2017-06-22T18:57:32.711Z,99.90
2017-06-22T19:00:00.193Z,99.90
2017-06-22T19:02:27.659Z,99.90
2017-06-22T19:04:55.121Z,99.90
2017-06-22T19:07:22.589Z,99.90
2017-06-22T19:09:50.151Z,99.90
2017-06-22T19:12:18.401Z,99.90
2017-06-22T19:14:45.852Z,99.90
2017-06-22T19:17:13.286Z,99.90
2017-06-22T19:19:40.778Z,99.90
2017-06-22T19:22:08.229Z,99.90
2017-06-22T19:24:35.667Z,99.90
2017-06-22T19:27:03.122Z,99.90
2017-06-22T19:29:30.575Z,99.90
2017-06-22T19:31:58.008Z,99.90
2017-06-22T19:34:25.531Z,99.90
2017-06-22T19:36:53.731Z,99.90
2017-06-22T19:39:21.230Z,99.90
2017-06-22T19:41:48.674Z,99.90
2017-06-22T19:44:16.171Z,99.90
2017-06-22T19:46:43.708Z,99.90
2017-06-22T19:49:11.179Z,99.90
2017-06-22T19:51:38.625Z,99.90
2017-06-22T19:54:06.102Z,99.90
2017-06-22T19:56:33.640Z,99.90
2017-06-22T19:59:01.187Z,99.90
2017-06-22T20:01:28.739Z,99.90
2017-06-22T20:03:56.194Z,99.90
2017-06-22T20:06:23.657Z,99.90
2017-06-22T20:08:51.143Z,99.90
2017-06-22T20:11:19.389Z,99.90
2017-06-22T20:13:46.844Z,99.90
2017-06-22T20:16:14.319Z,99.90
2017-06-22T20:18:41.770Z,99.90
2017-06-22T20:21:09.342Z,99.90
2017-06-22T20:23:36.890Z,99.90
2017-06-22T20:26:04.329Z,99.90
2017-06-22T20:28:31.812Z,99.90
2017-06-22T20:30:59.364Z,99.90
2017-06-22T20:33:26.910Z,99.90
2017-06-22T20:35:54.366Z,99.90
2017-06-22T20:38:21.846Z,99.90
2017-06-22T20:40:49.298Z,99.90
2017-06-22T20:43:16.766Z,99.90
2017-06-22T20:45:45.084Z,99.90
2017-06-22T20:48:12.527Z,99.90
2017-06-22T20:50:39.997Z,99.90
2017-06-22T20:53:07.513Z,99.90
2017-06-22T20:55:35.790Z,99.90
2017-06-22T20:58:04.022Z,99.90
2017-06-22T21:00:31.578Z,99.90
2017-06-22T21:02:59.014Z,99.90
2017-06-22T21:05:26.495Z,99.90
2017-06-22T21:07:54.142Z,99.90
2017-06-22T21:10:21.609Z,99.90
2017-06-22T21:12:49.044Z,99.90
2017-06-22T21:15:16.563Z,99.90
2017-06-22T21:17:44.810Z,99.90
2017-06-22T21:20:12.275Z,99.90
2017-06-22T21:22:39.724Z,99.90
2017-06-22T21:25:07.176Z,99.90
2017-06-22T21:27:34.674Z,99.90
2017-06-22T21:30:03.223Z,99.90
2017-06-22T21:32:30.679Z,99.90
2017-06-22T21:34:58.272Z,99.90
2017-06-22T21:37:26.498Z,99.90
2017-06-22T21:39:54.035Z,99.90
2017-06-22T21:42:21.478Z,99.90
2017-06-22T21:44:49.002Z,99.90
2017-06-22T21:47:16.831Z,99.90
2017-06-22T21:49:44.322Z,99.90
2017-06-22T21:52:12.645Z,99.90
2017-06-22T21:54:40.155Z,99.90
2017-06-22T21:57:07.586Z,99.90
2017-06-22T21:59:35.050Z,99.90
2017-06-22T22:02:02.515Z,99.90
2017-06-22T22:04:30.155Z,99.90
2017-06-22T22:06:57.622Z,99.90
2017-06-22T22:09:25.058Z,99.90
2017-06-22T22:11:52.535Z,99.90
2017-06-22T22:14:19.976Z,99.90
2017-06-22T22:16:47.444Z,99.90
2017-06-22T22:19:14.896Z,99.90
2017-06-22T22:21:42.387Z,99.90
2017-06-22T22:24:10.603Z,99.90
2017-06-22T22:26:38.094Z,99.90
2017-06-22T22:29:05.670Z,99.90
2017-06-22T22:31:33.924Z,99.90
2017-06-22T22:34:01.374Z,99.90
2017-06-22T22:36:28.908Z,99.90
2017-06-22T22:38:56.399Z,99.90
2017-06-22T22:41:23.848Z,99.90
2017-06-22T22:43:51.330Z,99.90
2017-06-22T22:46:18.816Z,99.90
2017-06-22T22:48:47.048Z,99.90
2017-06-22T22:51:14.592Z,99.90
2017-06-22T22:53:42.054Z,99.90
2017-06-22T22:56:09.503Z,99.90
2017-06-22T22:58:36.959Z,99.90
2017-06-22T23:01:04.403Z,99.90
2017-06-22T23:03:31.895Z,99.90
2017-06-22T23:05:59.430Z,99.90
2017-06-22T23:08:26.994Z,99.90
2017-06-22T23:10:54.428Z,99.90
2017-06-22T23:13:21.879Z,99.90
2017-06-22T23:15:49.359Z,99.90
2017-06-22T23:18:16.803Z,99.90
2017-06-22T23:20:44.244Z,99.90
2017-06-22T23:23:11.727Z,99.90
2017-06-22T23:25:39.187Z,99.90
2017-06-22T23:28:06.632Z,99.90
2017-06-22T23:30:34.084Z,99.90
2017-06-22T23:33:01.547Z,99.90
2017-06-22T23:35:29.003Z,99.90
2017-06-22T23:37:56.434Z,99.90
2017-06-22T23:40:23.915Z,99.90
2017-06-22T23:42:51.396Z,99.90
2017-06-22T23:45:18.851Z,99.90
2017-06-22T23:47:46.294Z,99.90
2017-06-22T23:50:13.754Z,99.90
2017-06-22T23:52:41.305Z,99.90
2017-06-22T23:55:08.870Z,99.90
2017-06-22T23:57:36.415Z,99.90
